Time;durP1;ratioP1;P1;durP2;ratioP2;P2;SDS_P1;SDS_P2;PMS_P1;PMS_P2;Temp;Humidity;BMP_temperature;BMP_pressure;BME280_temperature;BME280_humidity;BME280_pressure;Samples;Min_cycle;Max_cycle;Signal;HPM_P1;HPM_P2
2021/12/17 00:05:09;;;;;;;;;68.75;57.75;6.50;99.90;;;;;;5053666;28;8775;-66
2021/12/17 00:07:36;;;;;;;;;66.00;54.25;6.50;99.90;;;;;;5053421;28;8794;-66
2021/12/17 00:10:09;;;;;;;;;70.25;58.25;6.50;99.90;;;;;;5053645;28;8817;-66
2021/12/17 00:12:35;;;;;;;;;65.50;55.25;6.70;99.90;;;;;;5053467;28;8832;-66
2021/12/17 00:15:06;;;;;;;;;67.50;57.25;6.50;99.90;;;;;;5053614;28;8783;-66
2021/12/17 00:17:36;;;;;;;;;71.00;58.75;6.50;99.90;;;;;;5053216;28;8791;-66
2021/12/17 00:52:20;;;;;;;;;65.00;54.00;6.80;98.90;;;;;;5056960;28;9377;-67
2021/12/17 00:54:46;;;;;;;;;66.25;56.00;6.70;99.60;;;;;;5056696;28;8825;-67
2021/12/17 00:57:27;;;;;;;;;64.25;54.00;6.70;99.90;;;;;;5056965;28;8766;-67
2021/12/17 00:59:55;;;;;;;;;66.25;54.00;6.60;99.90;;;;;;5056920;28;8765;-67
2021/12/17 01:02:25;;;;;;;;;68.50;55.00;6.60;99.90;;;;;;5056943;28;8797;-67
2021/12/17 01:04:55;;;;;;;;;64.25;54.25;6.50;99.90;;;;;;5057004;28;8767;-67
2021/12/17 01:07:24;;;;;;;;;65.00;55.00;6.50;99.90;;;;;;5056449;28;8909;-67
2021/12/17 01:09:51;;;;;;;;;65.25;54.25;6.40;99.90;;;;;;5056841;28;8775;-67
2021/12/17 01:12:18;;;;;;;;;62.75;53.00;6.40;99.90;;;;;;5056699;28;8779;-67
2021/12/17 01:14:44;;;;;;;;;72.25;55.50;6.50;99.90;;;;;;5056293;28;8802;-67
2021/12/17 01:17:12;;;;;;;;;66.25;55.75;6.60;99.90;;;;;;5056556;28;8775;-67
2021/12/17 01:20:14;;;;;;;;;64.00;55.00;6.90;98.70;;;;;;5056419;28;8819;-67
2021/12/17 01:25:48;;;;;;;;;67.00;56.50;7.10;97.50;;;;;;5045066;28;8799;-67
2021/12/17 01:36:30;;;;;;;;;62.25;53.25;6.80;98.60;;;;;;5056178;28;9264;-66
2021/12/17 01:44:10;;;;;;;;;63.75;54.00;6.50;99.90;;;;;;5055850;28;8727;-67
2021/12/17 01:46:38;;;;;;;;;65.75;55.75;6.60;99.90;;;;;;5055461;28;8861;-67
2021/12/17 02:00:02;;;;;;;;;64.00;52.25;6.60;99.90;;;;;;5055668;28;8866;-67
2021/12/17 02:02:32;;;;;;;;;63.75;53.75;6.50;99.90;;;;;;5055305;28;8795;-67
2021/12/17 02:04:58;;;;;;;;;55.75;47.00;6.60;99.90;;;;;;5055365;28;8775;-67
2021/12/17 02:07:25;;;;;;;;;61.75;52.50;6.60;99.90;;;;;;5055179;28;8888;-67
2021/12/17 02:10:27;;;;;;;;;68.50;57.25;6.60;99.90;;;;;;5055602;28;9444;-67
2021/12/17 02:31:55;;;;;;;;;60.75;50.75;6.30;99.90;;;;;;5055369;28;8747;-67
2021/12/17 02:37:07;;;;;;;;;65.00;55.00;6.40;99.90;;;;;;5055044;28;8744;-67
2021/12/17 02:42:37;;;;;;;;;62.00;53.00;6.50;99.90;;;;;;5054789;28;8779;-67
2021/12/17 02:48:06;;;;;;;;;61.25;52.25;6.50;99.90;;;;;;5054873;28;8747;-67
2021/12/17 02:50:34;;;;;;;;;65.50;55.50;6.50;99.90;;;;;;5055062;28;8813;-67
2021/12/17 02:53:02;;;;;;;;;68.50;57.75;6.60;99.90;;;;;;5054341;28;9421;-67
2021/12/17 02:55:30;;;;;;;;;67.00;56.00;6.50;99.90;;;;;;5054770;28;8814;-67
2021/12/17 02:57:57;;;;;;;;;68.75;57.00;6.50;99.90;;;;;;5054553;28;8775;-66
2021/12/17 03:00:23;;;;;;;;;62.75;53.75;6.40;99.90;;;;;;5054444;28;8793;-67
2021/12/17 03:02:52;;;;;;;;;62.25;52.75;6.30;99.90;;;;;;5054373;28;8767;-67
2021/12/17 03:05:17;;;;;;;;;60.75;51.75;6.50;99.90;;;;;;5054265;28;8799;-67
2021/12/17 03:07:47;;;;;;;;;67.50;55.00;6.50;99.90;;;;;;5054060;28;8815;-67
2021/12/17 03:10:14;;;;;;;;;59.75;50.00;6.40;99.90;;;;;;5054393;28;8762;-66
2021/12/17 03:12:46;;;;;;;;;69.25;55.00;6.50;99.90;;;;;;5054150;28;8778;-67
2021/12/17 03:23:40;;;;;;;;;63.75;54.25;6.70;99.70;;;;;;5054154;28;8751;-67
2021/12/17 03:26:11;;;;;;;;;64.25;54.00;6.60;99.90;;;;;;5054054;28;8782;-66
2021/12/17 03:28:39;;;;;;;;;62.25;53.25;6.80;99.20;;;;;;5053668;28;8809;-67
2021/12/17 03:31:06;;;;;;;;;63.00;53.75;6.90;97.90;;;;;;5053684;28;8885;-67
2021/12/17 03:33:33;;;;;;;;;57.25;49.00;6.90;98.00;;;;;;5054033;28;8755;-67
2021/12/17 03:35:59;;;;;;;;;62.00;51.50;6.60;99.70;;;;;;5053997;28;8913;-67
2021/12/17 03:38:27;;;;;;;;;62.00;52.25;6.50;99.90;;;;;;5053998;28;8794;-64
2021/12/17 03:41:04;;;;;;;;;61.00;51.50;6.70;99.80;;;;;;5054055;28;8864;-66
2021/12/17 03:43:32;;;;;;;;;61.50;52.75;6.50;99.90;;;;;;5054014;28;8775;-66
2021/12/17 03:45:58;;;;;;;;;67.50;55.25;6.60;99.90;;;;;;5053879;28;8790;-67
2021/12/17 03:48:24;;;;;;;;;63.50;54.00;6.70;99.50;;;;;;5053716;28;8844;-67
2021/12/17 03:50:50;;;;;;;;;64.75;54.25;6.60;99.90;;;;;;5054086;28;8806;-66
2021/12/17 03:53:15;;;;;;;;;66.50;55.50;6.70;99.90;;;;;;5053899;28;8786;-67
2021/12/17 03:55:41;;;;;;;;;56.50;48.50;6.60;99.90;;;;;;5053549;28;8920;-67
2021/12/17 03:58:07;;;;;;;;;62.25;52.75;6.50;99.90;;;;;;5053445;28;8922;-67
2021/12/17 04:00:34;;;;;;;;;60.00;51.25;6.50;99.90;;;;;;5053516;28;8801;-67
2021/12/17 04:03:00;;;;;;;;;63.75;53.50;6.60;99.90;;;;;;5053528;28;8759;-65
2021/12/17 04:05:26;;;;;;;;;60.25;51.25;6.60;99.90;;;;;;5055823;28;8786;-67
2021/12/17 04:07:52;;;;;;;;;68.25;56.50;6.50;99.90;;;;;;5057682;28;8807;-65
2021/12/17 04:10:18;;;;;;;;;62.25;52.50;6.60;99.90;;;;;;5057737;28;8783;-65
2021/12/17 04:13:24;;;;;;;;;65.50;55.00;6.70;99.90;;;;;;5057640;28;9477;-65
2021/12/17 04:15:37;;;;;;;;;63.50;53.75;6.50;99.90;;;;;;5057209;28;8846;-65
2021/12/17 04:18:07;;;;;;;;;63.50;54.25;6.60;99.90;;;;;;5057786;28;9584;-66
2021/12/17 04:20:34;;;;;;;;;58.00;49.50;6.50;99.90;;;;;;5057933;28;8815;-65
2021/12/17 04:23:00;;;;;;;;;58.50;49.75;6.40;99.90;;;;;;5057539;28;8771;-64
2021/12/17 04:25:28;;;;;;;;;62.50;53.50;6.30;99.90;;;;;;5057645;28;8754;-65
2021/12/17 04:27:55;;;;;;;;;66.75;56.00;6.40;99.90;;;;;;5057343;28;8786;-66
2021/12/17 04:30:23;;;;;;;;;63.25;54.00;6.40;99.90;;;;;;5057386;28;8874;-66
2021/12/17 04:32:49;;;;;;;;;68.00;56.00;6.60;99.90;;;;;;5056843;28;8767;-65
2021/12/17 04:35:15;;;;;;;;;64.50;54.50;6.60;99.90;;;;;;5056915;28;8825;-66
2021/12/17 04:37:41;;;;;;;;;59.50;50.25;6.50;99.90;;;;;;5056640;28;8763;-65
2021/12/17 04:40:08;;;;;;;;;66.00;55.50;6.50;99.90;;;;;;5057003;28;8779;-65
2021/12/17 04:45:09;;;;;;;;;63.75;54.00;6.70;99.90;;;;;;5056877;28;8759;-65
2021/12/17 04:58:31;;;;;;;;;57.75;49.00;6.50;99.90;;;;;;5056978;28;8759;-65
2021/12/17 05:00:58;;;;;;;;;58.75;50.50;6.40;99.90;;;;;;5059785;28;9007;-67
2021/12/17 05:03:24;;;;;;;;;60.50;51.00;6.60;99.90;;;;;;5073239;28;8795;-64
2021/12/17 05:05:50;;;;;;;;;65.25;53.75;6.40;99.90;;;;;;5070812;28;8771;-64
2021/12/17 05:08:19;;;;;;;;;57.00;48.25;6.50;99.90;;;;;;5065287;28;8819;-64
2021/12/17 05:11:26;;;;;;;;;58.00;49.00;6.50;99.90;;;;;;5056914;28;8793;-64
2021/12/17 05:19:21;;;;;;;;;48.25;43.75;6.40;99.90;;;;;;5067245;28;8800;-67
2021/12/17 05:21:47;;;;;;;;;50.00;44.50;6.50;99.90;;;;;;5070583;28;8772;-66
2021/12/17 05:24:13;;;;;;;;;54.50;48.25;6.40;99.90;;;;;;5061200;28;8787;-66
2021/12/17 05:26:39;;;;;;;;;56.75;47.75;6.60;99.90;;;;;;5056860;28;8787;-66
2021/12/17 05:29:05;;;;;;;;;50.75;45.00;6.60;99.90;;;;;;5058879;28;8840;-63
2021/12/17 05:31:30;;;;;;;;;65.00;54.00;6.70;99.90;;;;;;5057510;28;8791;-62
2021/12/17 05:33:56;;;;;;;;;64.00;55.00;6.70;99.90;;;;;;5066448;28;8796;-65
2021/12/17 05:36:22;;;;;;;;;55.25;47.25;6.70;99.90;;;;;;5062956;28;8980;-63
2021/12/17 05:38:48;;;;;;;;;59.00;50.00;6.70;99.90;;;;;;5063432;28;8784;-64
2021/12/17 05:41:14;;;;;;;;;54.50;48.25;6.80;99.90;;;;;;5068270;28;8796;-63
2021/12/17 05:43:40;;;;;;;;;57.00;48.00;6.80;99.90;;;;;;5059564;28;8902;-64
2021/12/17 05:48:33;;;;;;;;;56.75;49.25;6.80;99.90;;;;;;5059317;28;8795;-65
2021/12/17 05:51:01;;;;;;;;;53.00;46.75;6.80;99.90;;;;;;5058882;28;8925;-64
2021/12/17 05:53:28;;;;;;;;;49.50;44.25;6.90;99.90;;;;;;5062052;28;8791;-63
2021/12/17 05:55:55;;;;;;;;;57.00;48.50;6.80;99.90;;;;;;5062196;28;8820;-67
2021/12/17 05:58:21;;;;;;;;;59.50;49.75;6.70;99.90;;;;;;5072365;28;8771;-65
2021/12/17 06:00:47;;;;;;;;;59.25;49.50;6.70;99.90;;;;;;5065932;28;8767;-66
2021/12/17 06:03:12;;;;;;;;;50.50;44.25;6.60;99.90;;;;;;5069928;28;8818;-63
2021/12/17 06:05:39;;;;;;;;;54.75;46.25;6.50;99.90;;;;;;5063587;28;8811;-63
2021/12/17 06:08:06;;;;;;;;;41.75;40.00;6.60;99.90;;;;;;5073147;28;8784;-66
2021/12/17 06:10:32;;;;;;;;;55.25;47.00;6.60;99.90;;;;;;5075851;28;8752;-66
2021/12/17 06:12:58;;;;;;;;;52.25;46.25;6.60;99.90;;;;;;5075796;28;8788;-72
2021/12/17 06:15:25;;;;;;;;;61.00;49.50;6.50;99.90;;;;;;5075608;28;8808;-71
2021/12/17 06:17:52;;;;;;;;;55.00;47.25;6.60;99.90;;;;;;5075751;28;8752;-67
2021/12/17 06:20:20;;;;;;;;;47.75;43.25;6.60;99.90;;;;;;5076176;28;8835;-67
2021/12/17 06:22:49;;;;;;;;;50.50;45.00;6.70;99.90;;;;;;5075870;28;8768;-68
2021/12/17 06:25:15;;;;;;;;;46.75;41.75;6.70;99.90;;;;;;5075530;28;8772;-67
2021/12/17 06:27:42;;;;;;;;;59.25;50.00;6.60;99.90;;;;;;5074718;28;8772;-68
2021/12/17 06:30:10;;;;;;;;;51.00;45.25;6.60;99.90;;;;;;5075483;28;8881;-66
2021/12/17 06:32:36;;;;;;;;;52.25;45.75;6.60;99.90;;;;;;5075410;28;8769;-67
2021/12/17 06:35:03;;;;;;;;;39.00;37.75;6.60;99.90;;;;;;5075526;28;8826;-68
2021/12/17 06:37:29;;;;;;;;;52.00;45.75;6.70;99.90;;;;;;5075382;28;8761;-67
2021/12/17 06:39:55;;;;;;;;;45.75;42.00;6.70;99.90;;;;;;5075156;28;8781;-67
2021/12/17 06:42:20;;;;;;;;;52.50;46.00;6.60;99.90;;;;;;5075477;28;8774;-67
2021/12/17 06:44:47;;;;;;;;;49.25;44.25;6.70;99.90;;;;;;5075321;28;8761;-67
2021/12/17 07:10:53;;;;;;;;;49.00;44.50;6.70;99.90;;;;;;5075077;28;8761;-67
2021/12/17 07:39:55;;;;;;;;;46.00;41.25;7.10;99.90;;;;;;5074431;28;8761;-66
2021/12/17 07:42:22;;;;;;;;;42.75;40.00;7.10;99.70;;;;;;5074391;28;8756;-66
2021/12/17 07:44:48;;;;;;;;;40.25;38.00;7.10;99.30;;;;;;5074355;28;8784;-66
2021/12/17 07:47:14;;;;;;;;;48.00;43.25;7.10;99.80;;;;;;5074727;28;8792;-67
2021/12/17 07:49:40;;;;;;;;;40.75;38.00;7.40;98.60;;;;;;5074499;28;8804;-68
2021/12/17 07:52:05;;;;;;;;;49.50;43.75;7.20;99.40;;;;;;5074325;28;8772;-68
2021/12/17 07:54:31;;;;;;;;;46.25;40.50;7.30;98.90;;;;;;5074470;28;8796;-68
2021/12/17 07:56:57;;;;;;;;;47.25;42.00;7.10;99.90;;;;;;5074212;28;8773;-68
2021/12/17 07:59:23;;;;;;;;;47.25;40.25;6.90;99.90;;;;;;5074224;28;8760;-68
2021/12/17 08:01:49;;;;;;;;;44.75;41.00;6.90;99.90;;;;;;5074170;28;8772;-68
2021/12/17 08:04:14;;;;;;;;;41.00;39.00;6.80;99.90;;;;;;5074149;28;8772;-68
2021/12/17 08:06:40;;;;;;;;;46.00;41.50;6.80;99.90;;;;;;5073855;28;8915;-68
2021/12/17 08:09:06;;;;;;;;;60.75;47.00;6.80;99.90;;;;;;5074013;28;8765;-68
2021/12/17 08:11:39;;;;;;;;;50.25;44.00;7.10;99.90;;;;;;5074125;28;8856;-67
2021/12/17 08:14:10;;;;;;;;;36.25;35.00;7.00;99.90;;;;;;5074321;28;9411;-68
2021/12/17 08:25:09;;;;;;;;;49.75;43.50;7.10;98.90;;;;;;5074094;28;8744;-68
2021/12/17 08:28:03;;;;;;;;;42.00;39.50;7.20;98.00;;;;;;5074076;28;8760;-68
2021/12/17 08:30:38;;;;;;;;;53.25;45.50;7.20;97.10;;;;;;5074143;28;9439;-68
2021/12/17 08:33:05;;;;;;;;;56.00;46.50;7.50;95.50;;;;;;5074197;28;8760;-68
2021/12/17 08:35:35;;;;;;;;;46.25;41.50;7.60;93.50;;;;;;5073948;28;8792;-67
2021/12/17 08:38:04;;;;;;;;;48.25;43.25;7.70;91.60;;;;;;5074081;28;9480;-68
2021/12/17 08:40:30;;;;;;;;;55.75;48.00;7.80;90.50;;;;;;5073814;28;8858;-68
2021/12/17 08:42:56;;;;;;;;;49.00;43.00;7.70;90.40;;;;;;5073799;28;8776;-68
2021/12/17 08:45:22;;;;;;;;;50.75;44.75;7.70;90.10;;;;;;5074020;28;8949;-68
2021/12/17 08:47:49;;;;;;;;;52.50;45.25;7.90;86.20;;;;;;5073770;28;8871;-68
2021/12/17 08:50:15;;;;;;;;;53.50;46.25;7.80;87.60;;;;;;5074212;28;8923;-67
2021/12/17 08:52:41;;;;;;;;;47.00;42.75;7.90;86.70;;;;;;5077294;28;8772;-68
2021/12/17 08:55:10;;;;;;;;;48.75;43.00;8.10;85.00;;;;;;5077566;28;8819;-68
2021/12/17 08:57:36;;;;;;;;;36.25;35.50;8.30;82.70;;;;;;5077192;28;8784;-68
2021/12/17 09:00:07;;;;;;;;;37.25;37.00;8.10;82.80;;;;;;5077160;28;8760;-68
2021/12/17 09:02:36;;;;;;;;;46.50;41.25;7.70;87.70;;;;;;5077171;28;8768;-68
2021/12/17 09:05:05;;;;;;;;;43.00;40.50;7.40;91.30;;;;;;5077368;28;9391;-68
2021/12/17 09:07:31;;;;;;;;;39.00;38.00;7.60;90.70;;;;;;5076884;28;8792;-68
2021/12/17 09:09:57;;;;;;;;;38.00;37.00;7.50;91.60;;;;;;5076980;28;8740;-66
2021/12/17 09:12:23;;;;;;;;;41.75;38.50;7.50;91.50;;;;;;5077143;28;8772;-66
2021/12/17 09:14:49;;;;;;;;;30.50;30.50;7.40;91.40;;;;;;5077081;28;9447;-66
2021/12/17 09:17:15;;;;;;;;;45.50;41.50;7.30;92.00;;;;;;5076828;28;8770;-66
2021/12/17 09:19:41;;;;;;;;;35.50;35.50;7.50;91.50;;;;;;5077023;28;8929;-66
2021/12/17 09:22:07;;;;;;;;;43.75;40.00;7.70;90.80;;;;;;5076953;28;8760;-66
2021/12/17 09:24:32;;;;;;;;;42.00;39.50;7.90;89.60;;;;;;5076611;28;9399;-66
2021/12/17 09:26:59;;;;;;;;;43.25;39.75;7.90;88.60;;;;;;5076673;28;8938;-66
2021/12/17 09:29:24;;;;;;;;;31.75;31.50;7.90;90.00;;;;;;5076647;28;8760;-66
2021/12/17 09:31:50;;;;;;;;;40.75;38.50;7.60;90.50;;;;;;5076565;28;8757;-66
2021/12/17 09:34:16;;;;;;;;;38.25;37.00;7.70;90.50;;;;;;5076492;28;8854;-66
2021/12/17 09:36:43;;;;;;;;;36.25;36.00;7.90;88.00;;;;;;5076503;28;8760;-66
2021/12/17 09:39:09;;;;;;;;;30.00;30.00;7.80;87.30;;;;;;5076551;28;9456;-66
2021/12/17 09:41:35;;;;;;;;;38.25;37.25;7.60;88.00;;;;;;5076817;28;8745;-66
2021/12/17 09:44:00;;;;;;;;;19.75;19.75;7.60;88.90;;;;;;5076626;28;9537;-66
2021/12/17 09:46:26;;;;;;;;;39.25;38.00;7.40;90.30;;;;;;5076412;28;8749;-66
2021/12/17 09:48:54;;;;;;;;;34.00;33.00;7.40;90.40;;;;;;5076268;28;8812;-67
2021/12/17 09:51:20;;;;;;;;;34.50;34.50;7.40;90.00;;;;;;5076247;28;8783;-68
2021/12/17 09:53:47;;;;;;;;;37.50;36.50;7.30;90.00;;;;;;5076407;28;8777;-67
2021/12/17 09:56:13;;;;;;;;;40.25;38.75;7.40;90.00;;;;;;5076292;28;8788;-68
2021/12/17 09:58:39;;;;;;;;;41.50;39.25;7.70;87.40;;;;;;5076095;28;8849;-67
2021/12/17 10:01:05;;;;;;;;;43.00;39.00;7.70;86.90;;;;;;5076002;28;8784;-66
2021/12/17 10:03:31;;;;;;;;;42.25;38.75;7.80;85.20;;;;;;5074694;28;8903;-66
2021/12/17 10:05:57;;;;;;;;;41.00;38.50;8.00;83.30;;;;;;5075757;28;8768;-66
2021/12/17 10:08:24;;;;;;;;;44.00;40.50;8.00;82.80;;;;;;5075929;28;8760;-66
2021/12/17 10:11:00;;;;;;;;;40.75;38.75;8.20;81.80;;;;;;5076120;28;8795;-66
2021/12/17 10:13:28;;;;;;;;;40.75;38.75;8.00;83.70;;;;;;5076128;28;8764;-66
2021/12/17 10:16:01;;;;;;;;;36.50;36.00;7.80;85.20;;;;;;5075731;28;8792;-67
2021/12/17 10:18:38;;;;;;;;;31.50;31.50;7.50;87.90;;;;;;5075896;28;8760;-66
2021/12/17 10:21:07;;;;;;;;;28.25;28.25;7.50;88.20;;;;;;5075981;28;8764;-67
2021/12/17 10:23:34;;;;;;;;;28.00;28.00;7.50;89.30;;;;;;5075924;28;9441;-67
2021/12/17 10:26:01;;;;;;;;;24.00;24.00;7.60;87.50;;;;;;5075837;28;8780;-67
2021/12/17 10:28:27;;;;;;;;;33.50;33.00;7.40;88.60;;;;;;5075120;28;8780;-66
2021/12/17 10:30:57;;;;;;;;;34.00;34.00;7.50;89.40;;;;;;5075405;28;8753;-67
2021/12/17 10:33:26;;;;;;;;;47.50;43.25;7.60;87.40;;;;;;5075498;28;8794;-67
2021/12/17 10:35:54;;;;;;;;;52.25;45.00;8.00;85.60;;;;;;5075545;28;8792;-66
2021/12/17 10:38:24;;;;;;;;;33.00;33.00;8.10;82.70;;;;;;5075336;28;8929;-67
2021/12/17 10:41:06;;;;;;;;;41.25;38.75;8.10;79.90;;;;;;5075531;28;8787;-67
2021/12/17 10:43:40;;;;;;;;;33.25;32.25;8.50;79.00;;;;;;5075492;28;8757;-66
2021/12/17 10:46:24;;;;;;;;;61.00;51.00;8.80;75.70;;;;;;5075246;28;8771;-67
2021/12/17 10:49:12;;;;;;;;;56.75;48.75;8.60;76.60;;;;;;5075142;28;8816;-66
2021/12/17 10:54:16;;;;;;;;;39.50;38.00;8.30;77.70;;;;;;5075188;28;8771;-66
2021/12/17 10:56:45;;;;;;;;;45.50;41.00;7.80;80.00;;;;;;5074998;28;8768;-66
2021/12/17 10:59:16;;;;;;;;;44.50;40.25;7.90;80.20;;;;;;5075175;28;9438;-67
2021/12/17 11:02:04;;;;;;;;;53.50;46.50;8.10;79.40;;;;;;5075228;28;8736;-66
2021/12/17 11:04:37;;;;;;;;;48.75;43.00;8.30;78.20;;;;;;5074934;28;8776;-66
2021/12/17 11:07:17;;;;;;;;;53.50;46.00;8.20;78.10;;;;;;5074624;28;8800;-67
2021/12/17 11:09:50;;;;;;;;;50.75;44.25;8.30;78.80;;;;;;5074793;28;8902;-67
2021/12/17 11:12:33;;;;;;;;;49.25;43.75;8.20;77.30;;;;;;5074969;28;8760;-66
2021/12/17 11:15:26;;;;;;;;;47.25;42.25;8.10;78.80;;;;;;5074406;28;8888;-67
2021/12/17 11:17:58;;;;;;;;;45.50;41.00;8.20;78.10;;;;;;5074849;28;8799;-67
2021/12/17 11:20:26;;;;;;;;;41.75;39.50;8.20;77.80;;;;;;5074770;28;8800;-66
2021/12/17 11:22:54;;;;;;;;;45.00;41.25;8.20;77.30;;;;;;5074636;28;9439;-67
2021/12/17 11:25:21;;;;;;;;;50.75;44.75;8.00;78.20;;;;;;5074484;28;8863;-67
2021/12/17 11:27:47;;;;;;;;;42.00;40.00;8.20;77.10;;;;;;5074573;28;8757;-66
2021/12/17 11:30:17;;;;;;;;;45.25;41.00;8.00;77.90;;;;;;5074798;28;8791;-66
2021/12/17 11:32:45;;;;;;;;;54.25;46.75;7.80;80.20;;;;;;5074747;28;8752;-66
2021/12/17 11:35:15;;;;;;;;;53.00;45.25;7.90;79.50;;;;;;5074365;28;8812;-66
2021/12/17 11:37:43;;;;;;;;;55.75;48.25;7.90;80.90;;;;;;5074452;28;8761;-67
2021/12/17 11:40:27;;;;;;;;;53.25;45.00;8.00;80.80;;;;;;5074463;28;8752;-67
2021/12/17 11:43:20;;;;;;;;;54.00;46.50;7.90;80.60;;;;;;5074750;28;8757;-66
2021/12/17 11:45:58;;;;;;;;;58.00;49.25;7.80;80.80;;;;;;5074345;28;9427;-66
2021/12/17 11:48:27;;;;;;;;;56.00;47.50;7.70;81.10;;;;;;5074316;28;8753;-66
2021/12/17 11:51:07;;;;;;;;;52.00;45.00;8.10;79.40;;;;;;5074290;28;8768;-66
2021/12/17 11:53:41;;;;;;;;;56.25;46.75;8.20;77.00;;;;;;5074215;28;8763;-67
2021/12/17 11:56:07;;;;;;;;;60.75;51.50;8.10;79.10;;;;;;5073907;28;8868;-67
2021/12/17 11:58:59;;;;;;;;;53.00;46.00;8.10;79.80;;;;;;5074229;28;8897;-67
2021/12/17 12:01:47;;;;;;;;;54.50;47.75;8.20;78.70;;;;;;5073825;28;8794;-67
2021/12/17 12:04:22;;;;;;;;;44.25;40.25;8.20;78.10;;;;;;5074382;28;8771;-67
2021/12/17 12:07:07;;;;;;;;;52.50;45.00;8.20;76.50;;;;;;5073978;28;8804;-67
2021/12/17 12:09:57;;;;;;;;;50.75;44.25;8.30;77.30;;;;;;5074112;28;8768;-67
2021/12/17 12:12:46;;;;;;;;;50.25;44.25;8.60;75.30;;;;;;5073923;28;8768;-67
2021/12/17 12:15:24;;;;;;;;;54.25;47.00;8.40;77.10;;;;;;5073756;28;9551;-67
2021/12/17 12:18:07;;;;;;;;;55.00;48.00;8.50;75.60;;;;;;5074055;28;8764;-66
2021/12/17 12:20:45;;;;;;;;;53.50;45.75;8.20;78.10;;;;;;5073920;28;8808;-66
2021/12/17 12:23:15;;;;;;;;;48.75;43.25;8.20;78.60;;;;;;5074015;28;8783;-67
2021/12/17 12:25:42;;;;;;;;;59.00;49.50;8.50;77.10;;;;;;5074805;28;8851;-68
2021/12/17 12:28:07;;;;;;;;;55.75;47.50;8.60;76.00;;;;;;5077936;28;8867;-67
2021/12/17 12:30:43;;;;;;;;;60.75;50.50;8.80;75.30;;;;;;5076328;28;8775;-67
2021/12/17 12:33:10;;;;;;;;;54.75;47.00;8.60;76.00;;;;;;5077780;28;8803;-67
2021/12/17 12:35:36;;;;;;;;;48.25;42.25;9.00;73.00;;;;;;5077548;28;8792;-67
2021/12/17 12:38:17;;;;;;;;;46.75;40.75;8.90;73.30;;;;;;5077928;28;8760;-68
2021/12/17 12:40:51;;;;;;;;;41.50;39.00;9.30;70.80;;;;;;5077602;28;8805;-67
2021/12/17 12:43:31;;;;;;;;;45.75;40.50;9.70;69.60;;;;;;5077542;28;8880;-67
2021/12/17 12:45:58;;;;;;;;;52.00;45.00;9.90;69.00;;;;;;5077532;28;9418;-67
2021/12/17 12:48:39;;;;;;;;;47.75;42.25;9.50;70.60;;;;;;5077193;28;8772;-67
2021/12/17 12:51:16;;;;;;;;;46.00;41.25;9.10;70.50;;;;;;5077587;28;9423;-66
2021/12/17 12:54:06;;;;;;;;;37.50;36.50;8.70;72.20;;;;;;5077294;28;8767;-66
2021/12/17 12:56:32;;;;;;;;;45.50;40.50;8.70;72.90;;;;;;5077211;28;8794;-67
2021/12/17 12:58:59;;;;;;;;;55.25;47.00;8.90;73.20;;;;;;5077068;28;8793;-67
2021/12/17 13:01:25;;;;;;;;;57.75;48.00;9.10;71.20;;;;;;5077269;28;9450;-67
2021/12/17 13:03:51;;;;;;;;;59.25;50.25;8.90;72.20;;;;;;5077315;28;9198;-67
2021/12/17 13:06:19;;;;;;;;;64.00;54.00;9.20;71.90;;;;;;5076606;28;8804;-67
2021/12/17 13:08:56;;;;;;;;;60.25;50.75;9.30;71.10;;;;;;5077291;28;8874;-68
2021/12/17 13:11:22;;;;;;;;;53.50;46.00;9.60;69.60;;;;;;5076956;28;8777;-67
2021/12/17 13:13:58;;;;;;;;;53.75;46.75;9.50;69.60;;;;;;5071103;28;9493;-64
2021/12/17 13:21:45;;;;;;;;;47.25;42.25;8.70;72.60;;;;;;5064420;28;8784;-65
2021/12/17 13:24:18;;;;;;;;;54.25;46.50;8.40;74.30;;;;;;5071328;28;8778;-64
2021/12/17 13:26:48;;;;;;;;;48.50;43.25;8.20;75.30;;;;;;5075259;28;8777;-67
2021/12/17 13:29:32;;;;;;;;;46.25;40.75;8.30;75.10;;;;;;5075434;28;8826;-63
2021/12/17 13:32:03;;;;;;;;;52.75;44.25;8.40;74.40;;;;;;5072962;28;8894;-63
2021/12/17 13:34:38;;;;;;;;;43.00;39.75;8.60;74.20;;;;;;5075712;28;8800;-64
2021/12/17 13:37:16;;;;;;;;;50.00;44.25;8.30;74.90;;;;;;5076582;28;9422;-67
2021/12/17 13:39:56;;;;;;;;;55.00;46.25;8.30;76.50;;;;;;5064693;28;8783;-64
2021/12/17 13:42:27;;;;;;;;;51.00;44.75;8.40;74.40;;;;;;5061391;28;8855;-64
2021/12/17 13:44:54;;;;;;;;;49.75;43.75;8.40;74.60;;;;;;5056464;28;8783;-65
2021/12/17 13:47:37;;;;;;;;;53.00;45.25;8.30;75.40;;;;;;5068804;28;8799;-64
2021/12/17 13:50:13;;;;;;;;;50.75;44.50;8.20;75.90;;;;;;5074395;28;8915;-65
2021/12/17 13:52:49;;;;;;;;;53.00;45.75;8.40;74.90;;;;;;5073505;28;8781;-64
2021/12/17 13:55:19;;;;;;;;;61.75;51.25;8.60;74.70;;;;;;5072849;28;8788;-64
2021/12/17 13:57:46;;;;;;;;;54.50;46.75;8.90;73.60;;;;;;5074100;28;8756;-65
2021/12/17 14:00:24;;;;;;;;;52.00;45.50;8.80;73.10;;;;;;5073769;28;8768;-66
2021/12/17 14:02:55;;;;;;;;;52.00;45.00;8.70;73.80;;;;;;5071134;28;8761;-64
2021/12/17 14:05:27;;;;;;;;;44.00;40.50;8.60;74.40;;;;;;5074445;28;8833;-63
2021/12/17 14:07:55;;;;;;;;;56.75;48.50;8.60;74.40;;;;;;5074282;28;8815;-64
2021/12/17 14:10:24;;;;;;;;;57.75;49.00;8.70;73.60;;;;;;5075735;28;8760;-64
2021/12/17 14:12:50;;;;;;;;;55.25;47.25;9.10;72.70;;;;;;5075666;28;8788;-66
2021/12/17 14:15:19;;;;;;;;;61.50;51.75;8.90;73.10;;;;;;5075446;28;8854;-68
2021/12/17 14:17:48;;;;;;;;;59.75;50.25;8.80;73.60;;;;;;5075717;28;8833;-63
2021/12/17 14:20:17;;;;;;;;;57.75;49.75;8.50;75.20;;;;;;5073168;28;8808;-67
2021/12/17 14:22:48;;;;;;;;;57.25;49.25;8.70;74.50;;;;;;5072621;28;8781;-64
2021/12/17 14:25:24;;;;;;;;;60.25;51.75;8.90;73.30;;;;;;5073245;28;8776;-65
2021/12/17 14:27:50;;;;;;;;;62.00;52.50;8.80;74.10;;;;;;5055975;28;8763;-66
2021/12/17 14:30:21;;;;;;;;;61.00;51.00;9.10;72.10;;;;;;5055557;28;8748;-66
2021/12/17 14:32:47;;;;;;;;;67.50;56.50;8.50;75.00;;;;;;5055533;28;8775;-66
2021/12/17 14:35:14;;;;;;;;;66.25;55.00;8.90;73.80;;;;;;5055547;28;8790;-65
2021/12/17 14:38:06;;;;;;;;;68.00;56.00;9.10;73.00;;;;;;5063071;28;8848;-65
2021/12/17 14:43:21;;;;;;;;;74.00;60.00;8.90;73.90;;;;;;5063309;28;8784;-66
2021/12/17 14:46:26;;;;;;;;;69.50;57.75;9.00;73.00;;;;;;5068223;28;8771;-66
2021/12/17 14:57:19;;;;;;;;;74.50;59.25;8.90;73.30;;;;;;5064280;28;8805;-64
2021/12/17 15:01:11;;;;;;;;;75.25;62.25;9.10;72.00;;;;;;5059670;28;8763;-61
2021/12/17 15:03:38;;;;;;;;;88.50;76.25;9.30;72.40;;;;;;5068458;28;8792;-60
2021/12/17 15:06:05;;;;;;;;;79.50;65.50;9.90;69.50;;;;;;5065469;28;8805;-66
2021/12/17 15:08:31;;;;;;;;;84.75;73.75;10.00;68.30;;;;;;5061286;28;8869;-69
2021/12/17 15:10:59;;;;;;;;;84.75;72.75;10.00;67.90;;;;;;5062380;28;8772;-64
2021/12/17 15:13:25;;;;;;;;;86.75;74.00;10.10;67.80;;;;;;5061084;28;8802;-62
2021/12/17 15:15:52;;;;;;;;;81.75;67.75;10.40;66.20;;;;;;5070830;28;9448;-70
2021/12/17 15:18:19;;;;;;;;;84.00;70.75;10.60;65.80;;;;;;5057095;28;8803;-66
2021/12/17 15:20:56;;;;;;;;;78.75;65.25;10.50;65.40;;;;;;5060849;28;8784;-66
2021/12/17 15:23:23;;;;;;;;;66.75;56.25;10.30;66.20;;;;;;5063507;28;8889;-68
2021/12/17 15:25:51;;;;;;;;;58.50;49.75;10.00;66.80;;;;;;5058337;28;8913;-66
2021/12/17 15:28:23;;;;;;;;;39.25;37.00;9.50;67.50;;;;;;5057542;28;8877;-67
2021/12/17 15:31:04;;;;;;;;;40.00;38.25;9.00;70.00;;;;;;5057322;28;8789;-65
2021/12/17 15:33:30;;;;;;;;;39.50;37.75;8.50;72.70;;;;;;5055647;28;8820;-66
2021/12/17 15:35:56;;;;;;;;;48.00;42.50;8.40;73.60;;;;;;5061386;28;8812;-75
2021/12/17 15:38:23;;;;;;;;;51.25;44.00;8.50;73.70;;;;;;5062424;28;8788;-67
2021/12/17 15:40:50;;;;;;;;;54.50;47.25;8.80;72.50;;;;;;5066250;28;8830;-71
2021/12/17 15:43:17;;;;;;;;;55.00;47.00;8.80;71.90;;;;;;5074266;28;8803;-68
2021/12/17 15:45:46;;;;;;;;;63.75;53.25;9.10;71.40;;;;;;5074030;28;8776;-67
2021/12/17 15:48:14;;;;;;;;;77.25;63.00;9.70;69.20;;;;;;5063502;28;8873;-67
2021/12/17 15:50:41;;;;;;;;;62.00;52.50;9.70;68.80;;;;;;5065846;28;8775;-67
2021/12/17 15:53:08;;;;;;;;;60.75;52.00;9.80;68.00;;;;;;5061858;28;8783;-66
2021/12/17 15:55:34;;;;;;;;;57.75;49.50;9.80;67.90;;;;;;5069840;28;8816;-66
2021/12/17 15:58:02;;;;;;;;;59.00;51.00;9.80;68.10;;;;;;5074058;28;8753;-69
2021/12/17 16:00:33;;;;;;;;;59.75;50.75;9.90;67.60;;;;;;5076306;28;8768;-67
2021/12/17 16:03:00;;;;;;;;;53.50;46.25;9.70;67.80;;;;;;5078399;28;8800;-66
2021/12/17 16:05:26;;;;;;;;;69.00;58.00;9.30;68.90;;;;;;5078545;28;8757;-72
2021/12/17 16:07:53;;;;;;;;;72.00;59.75;9.30;69.90;;;;;;5078062;28;8807;-72
2021/12/17 16:18:39;;;;;;;;;57.00;48.00;9.20;70.00;;;;;;5078223;28;8761;-68
2021/12/17 16:21:04;;;;;;;;;60.00;51.00;9.20;69.40;;;;;;5077940;28;8811;-64
2021/12/17 16:23:39;;;;;;;;;55.75;48.00;9.10;69.40;;;;;;5077806;28;8772;-63
2021/12/17 16:26:07;;;;;;;;;58.25;49.75;9.10;70.00;;;;;;5077893;28;9484;-66
2021/12/17 16:28:34;;;;;;;;;58.00;49.00;9.20;69.10;;;;;;5078172;28;8752;-67